West Vancouver, British Columbia

9:51 PM PDT on May 03, 2015 (GMT -0700)
West Haven Wynd | | Change Station
CLOSE
Current Station
Personal Weather Station
Location: West Vancouver, BRITISH COLUMBIA
Elevation: 350 ft
Nearby Weather Stations

Elev 350 ft 49.36 °N, 123.26 °W | Updated 11 minutes ago

Partly Cloudy
Partly Cloudy
54.9 °F
Feels Like 54.9 °F
N
2.2
Wind Variable Wind from ESE

Tomorrow is forecast to be nearly the same temperature as today.

Today
High -- | Low -- °F
--% Chance of Precip.
Yesterday
High -- | Low -- °F
Precip. -- in
5:47 AM 8:32 PM
Full, 100% visible
Pressure 29.88 in
Visibility 25.0 miles
Clouds Few 16000 ft
Dew Point 40 °F
Humidity 57%
Rainfall 0.00 in
Snow Depth Not available.
UV 0 out of 12
Pollen Not available.
Air Quality Not available.
Flu Activity Not available.
METAR CYVR 040400Z 24002KT 25SM FEW160 12/07 A2988 RMK AC1 TR CI SLP118

More Conditions Fewer Conditions

Pressure 29.88 in
Visibility 25.0 miles
Clouds Few 16000 ft
Dew Point 40 °F
Humidity 57%
Rainfall 0.00 in
Snow Depth Not available.
UV 0 out of 12
Pollen Not available.
Air Quality Not available.
Flu Activity Not available.
METAR CYVR 040400Z 24002KT 25SM FEW160 12/07 A2988 RMK AC1 TR CI SLP118

More Conditions Fewer Conditions

10-Day Weather Forecast

Almanac

Astronomy

May. 03, 2015 Rise Set
Actual Time
Civil Twilight
Nautical Twilight
Astronomical Twilight
Moon
Length of Visible Light
Length of Day
Tomorrow will be .
, % of the Moon is Illuminated

Today's Extremes

Country Highs Country Lows

Community

WunderPhotos

Upload Photos

1,818,524 photos uploaded!

WunderBlogs® & News

Nearby

Air Quality

  Air Quality AQ Index Pollutant
Not available.

Snow Depth

Station Depth Elevation

Earthquake Activity

City Distance Mag. Time & Date
Minimum magnitude displayed is 2.5.

Coastal Water Temperatures

Place Temperature

Stations

Nearby Weather Stations

Station Location Temp. Windchill Dew Point Humidity Wind Precip. Elev Updated Type